createdAt,value
2023-10-18T00:00:15.480Z,981.63
2023-10-18T00:01:15.535Z,981.61
2023-10-18T00:02:15.496Z,981.61
2023-10-18T00:03:15.593Z,981.63
2023-10-18T00:04:15.586Z,981.64
2023-10-18T00:05:15.508Z,981.61
2023-10-18T00:06:15.450Z,981.6
2023-10-18T00:07:15.546Z,981.59
2023-10-18T00:08:15.507Z,981.6
2023-10-18T00:09:15.508Z,981.64
2023-10-18T00:10:15.575Z,981.66
2023-10-18T00:11:15.491Z,981.69
2023-10-18T00:12:15.470Z,981.7
2023-10-18T00:13:15.539Z,981.71
2023-10-18T00:14:15.508Z,981.71
2023-10-18T00:15:15.457Z,981.69
2023-10-18T00:16:15.512Z,981.7
2023-10-18T00:17:15.469Z,981.66
2023-10-18T00:18:15.644Z,981.65
2023-10-18T00:19:15.524Z,981.66
2023-10-18T00:20:15.492Z,981.66
2023-10-18T00:21:15.469Z,981.62
2023-10-18T00:22:15.556Z,981.62
2023-10-18T00:23:15.535Z,981.61
2023-10-18T00:24:15.510Z,981.6
2023-10-18T00:25:15.553Z,981.57
2023-10-18T00:26:15.511Z,981.56
2023-10-18T00:27:15.507Z,981.54
2023-10-18T00:28:15.539Z,981.51
2023-10-18T00:29:15.495Z,981.49
2023-10-18T00:30:15.511Z,981.47
2023-10-18T00:31:15.576Z,981.47
2023-10-18T00:32:15.510Z,981.45
2023-10-18T00:33:15.453Z,981.44
2023-10-18T00:34:15.531Z,981.43
2023-10-18T00:35:15.495Z,981.43
2023-10-18T00:36:15.474Z,981.42
2023-10-18T00:37:15.503Z,981.43
2023-10-18T00:38:15.493Z,981.42
2023-10-18T00:39:15.519Z,981.41
2023-10-18T00:40:15.510Z,981.4
2023-10-18T00:41:15.514Z,981.38
2023-10-18T00:42:15.510Z,981.38
2023-10-18T00:43:15.748Z,981.36
2023-10-18T00:44:15.506Z,981.33
2023-10-18T00:45:15.489Z,981.29
2023-10-18T00:46:15.681Z,981.3
2023-10-18T00:47:15.494Z,981.26
2023-10-18T00:48:15.529Z,981.25
2023-10-18T00:49:15.859Z,981.26
2023-10-18T00:50:15.526Z,981.22
2023-10-18T00:51:15.494Z,981.23
2023-10-18T00:52:15.516Z,981.25
2023-10-18T00:53:15.491Z,981.24
2023-10-18T00:54:15.489Z,981.26
2023-10-18T00:55:15.569Z,981.28
2023-10-18T00:56:15.498Z,981.27
2023-10-18T00:57:16.445Z,981.24
2023-10-18T00:58:15.523Z,981.22
2023-10-18T00:59:15.517Z,981.19
2023-10-18T01:00:15.478Z,981.17
2023-10-18T01:01:15.518Z,981.15
2023-10-18T01:02:15.520Z,981.13
2023-10-18T01:03:15.552Z,981.09
2023-10-18T01:04:15.618Z,981.1
2023-10-18T01:05:15.474Z,981.09
2023-10-18T01:06:15.511Z,981.08
2023-10-18T01:07:15.567Z,981.1
2023-10-18T01:08:15.490Z,981.11
2023-10-18T01:09:15.500Z,981.08
2023-10-18T01:10:15.575Z,981.05
2023-10-18T01:11:15.525Z,981.05
2023-10-18T01:12:15.520Z,981.01
2023-10-18T01:13:15.533Z,981.02
2023-10-18T01:14:15.499Z,981.01
2023-10-18T01:15:15.531Z,981.01
2023-10-18T01:16:15.751Z,981.01
2023-10-18T01:17:15.513Z,981.04
2023-10-18T01:18:15.486Z,981.04
2023-10-18T01:19:15.526Z,981.06
2023-10-18T01:20:15.515Z,981.05
2023-10-18T01:21:15.500Z,981.06
2023-10-18T01:22:15.528Z,981.06
2023-10-18T01:23:15.499Z,981
2023-10-18T01:24:15.560Z,981.01
2023-10-18T01:25:15.552Z,981.02
2023-10-18T01:26:15.514Z,981.01
2023-10-18T01:27:15.508Z,981.01
2023-10-18T01:28:15.569Z,981.04
2023-10-18T01:29:15.495Z,981.01
2023-10-18T01:30:15.490Z,981.03
2023-10-18T01:31:15.598Z,981.04
2023-10-18T01:32:15.511Z,981.04
2023-10-18T01:33:15.493Z,981.03
2023-10-18T01:34:15.506Z,981.03
2023-10-18T01:35:15.512Z,981.01
2023-10-18T01:36:15.507Z,980.99
2023-10-18T01:37:15.512Z,980.97
2023-10-18T01:38:15.529Z,980.99
2023-10-18T01:39:15.457Z,980.98
2023-10-18T01:40:15.578Z,981
2023-10-18T01:41:15.519Z,980.98
2023-10-18T01:42:15.525Z,980.99
2023-10-18T01:43:15.566Z,980.99
2023-10-18T01:44:15.502Z,981
2023-10-18T01:45:15.505Z,981.01
2023-10-18T01:46:15.597Z,981.02
2023-10-18T01:47:15.542Z,981.02
2023-10-18T01:48:15.534Z,981.02
2023-10-18T01:49:15.543Z,981.02
2023-10-18T01:50:15.475Z,981.04
2023-10-18T01:51:15.513Z,981.08
2023-10-18T01:52:15.557Z,981.12
2023-10-18T01:53:15.513Z,981.1
2023-10-18T01:54:15.538Z,981.1
2023-10-18T01:55:15.490Z,981.1
2023-10-18T01:56:15.479Z,981.05
2023-10-18T01:57:15.515Z,981.03
2023-10-18T01:58:15.578Z,981
2023-10-18T01:59:15.526Z,980.98
2023-10-18T02:00:15.516Z,980.95
2023-10-18T02:01:15.568Z,980.95
2023-10-18T02:02:15.510Z,980.95
2023-10-18T02:03:15.572Z,980.98
2023-10-18T02:04:15.535Z,980.99
2023-10-18T02:05:15.494Z,981.01
2023-10-18T02:06:15.532Z,981.02
2023-10-18T02:07:15.559Z,981.05
2023-10-18T02:08:15.510Z,981.07
2023-10-18T02:09:15.509Z,981.06
2023-10-18T02:10:15.560Z,981.07
2023-10-18T02:11:15.477Z,981.07
2023-10-18T02:12:15.516Z,981.07
2023-10-18T02:13:15.582Z,981.07
2023-10-18T02:14:15.521Z,981.05
2023-10-18T02:15:15.462Z,981.04
2023-10-18T02:16:15.601Z,981.02
2023-10-18T02:17:15.523Z,980.98
2023-10-18T02:18:15.682Z,980.96
2023-10-18T02:19:15.554Z,980.93
2023-10-18T02:20:15.512Z,980.92
2023-10-18T02:21:15.466Z,980.92
2023-10-18T02:22:15.547Z,980.91
2023-10-18T02:23:15.499Z,980.93
2023-10-18T02:24:15.493Z,980.92
2023-10-18T02:25:15.520Z,980.91
2023-10-18T02:26:15.483Z,980.91
2023-10-18T02:27:15.494Z,980.92
2023-10-18T02:28:15.494Z,980.92
2023-10-18T02:29:15.497Z,980.91
2023-10-18T02:30:15.514Z,980.89
2023-10-18T02:31:15.515Z,980.88
2023-10-18T02:32:15.491Z,980.87
2023-10-18T02:33:15.511Z,980.88
2023-10-18T02:34:28.459Z,980.91
2023-10-18T02:35:15.487Z,980.93
2023-10-18T02:36:15.510Z,980.92
2023-10-18T02:37:15.519Z,980.94
2023-10-18T02:38:15.470Z,980.91
2023-10-18T02:39:15.507Z,980.91
2023-10-18T02:40:15.509Z,980.9
2023-10-18T02:41:15.490Z,980.88
2023-10-18T02:42:15.486Z,980.87
2023-10-18T02:43:15.529Z,980.85
2023-10-18T02:44:15.513Z,980.84
2023-10-18T02:45:15.648Z,980.83
2023-10-18T02:46:15.520Z,980.8
2023-10-18T02:47:15.463Z,980.78
2023-10-18T02:48:15.484Z,980.78
2023-10-18T02:49:15.547Z,980.77
2023-10-18T02:50:15.808Z,980.76
2023-10-18T02:51:15.481Z,980.75
2023-10-18T02:52:15.549Z,980.78
2023-10-18T02:53:15.489Z,980.79
2023-10-18T02:54:15.498Z,980.81
2023-10-18T02:55:15.507Z,980.8
2023-10-18T02:56:15.462Z,980.8
2023-10-18T02:57:15.480Z,980.82
2023-10-18T02:58:15.585Z,980.8
2023-10-18T02:59:15.443Z,980.81
2023-10-18T03:00:15.497Z,980.81
2023-10-18T03:01:15.625Z,980.81
2023-10-18T03:02:15.479Z,980.85
2023-10-18T03:03:15.484Z,980.85
2023-10-18T03:04:15.596Z,980.85
2023-10-18T03:05:15.498Z,980.84
2023-10-18T03:06:15.702Z,980.83
2023-10-18T03:07:15.608Z,980.84
2023-10-18T03:08:15.464Z,980.85
2023-10-18T03:09:15.478Z,980.83
2023-10-18T03:10:15.527Z,980.82
2023-10-18T03:11:15.481Z,980.82
2023-10-18T03:12:15.470Z,980.8
2023-10-18T03:13:15.487Z,980.79
2023-10-18T03:14:15.471Z,980.77
2023-10-18T03:15:15.500Z,980.76
2023-10-18T03:16:15.546Z,980.74
2023-10-18T03:17:15.539Z,980.73
2023-10-18T03:18:15.519Z,980.7
2023-10-18T03:19:15.495Z,980.67
2023-10-18T03:20:15.480Z,980.66
2023-10-18T03:21:15.494Z,980.65
2023-10-18T03:22:15.495Z,980.66
2023-10-18T03:23:15.501Z,980.66
2023-10-18T03:24:15.504Z,980.66
2023-10-18T03:25:15.551Z,980.65
2023-10-18T03:26:15.508Z,980.62
2023-10-18T03:27:15.461Z,980.61
2023-10-18T03:28:15.547Z,980.6
2023-10-18T03:29:15.477Z,980.58
2023-10-18T03:30:15.507Z,980.57
2023-10-18T03:31:15.518Z,980.53
2023-10-18T03:32:15.462Z,980.53
2023-10-18T03:33:15.579Z,980.5
2023-10-18T03:34:15.524Z,980.51
2023-10-18T03:35:15.454Z,980.53
2023-10-18T03:36:20.863Z,980.5
2023-10-18T03:37:15.514Z,980.53
2023-10-18T03:38:15.493Z,980.52
2023-10-18T03:39:15.508Z,980.51
2023-10-18T03:40:15.550Z,980.53
2023-10-18T03:41:15.486Z,980.52
2023-10-18T03:42:15.500Z,980.52
2023-10-18T03:43:15.533Z,980.49
2023-10-18T03:44:15.467Z,980.51
2023-10-18T03:45:15.503Z,980.49
2023-10-18T03:46:15.683Z,980.48
2023-10-18T03:47:15.531Z,980.47
2023-10-18T03:48:15.499Z,980.46
2023-10-18T03:49:15.505Z,980.45
2023-10-18T03:50:15.467Z,980.41
2023-10-18T03:51:15.488Z,980.41
2023-10-18T03:52:15.586Z,980.4
2023-10-18T03:53:15.501Z,980.43
2023-10-18T03:54:15.502Z,980.42
2023-10-18T03:55:15.558Z,980.44
2023-10-18T03:56:15.494Z,980.47
2023-10-18T03:57:15.463Z,980.46
2023-10-18T03:58:15.545Z,980.49
2023-10-18T03:59:15.456Z,980.47
2023-10-18T04:00:15.500Z,980.49
2023-10-18T04:01:15.572Z,980.47
2023-10-18T04:02:15.476Z,980.46
2023-10-18T04:03:15.502Z,980.45
2023-10-18T04:04:15.545Z,980.45
2023-10-18T04:05:15.489Z,980.46
2023-10-18T04:06:15.431Z,980.49
2023-10-18T04:07:15.507Z,980.47
2023-10-18T04:08:15.919Z,980.48
2023-10-18T04:09:15.493Z,980.45
2023-10-18T04:10:15.468Z,980.47
2023-10-18T04:11:15.490Z,980.47
2023-10-18T04:12:15.474Z,980.47
2023-10-18T04:13:15.754Z,980.44
2023-10-18T04:14:15.466Z,980.43
2023-10-18T04:15:15.450Z,980.39
2023-10-18T04:16:15.521Z,980.37
2023-10-18T04:17:15.485Z,980.37
2023-10-18T04:18:15.483Z,980.38
2023-10-18T04:19:15.522Z,980.4
2023-10-18T04:20:15.465Z,980.4
2023-10-18T04:21:15.495Z,980.41
2023-10-18T04:22:15.508Z,980.41
2023-10-18T04:23:15.483Z,980.36
2023-10-18T04:24:15.511Z,980.39
2023-10-18T04:25:15.659Z,980.39
2023-10-18T04:26:15.472Z,980.41
2023-10-18T04:27:15.475Z,980.4
2023-10-18T04:28:15.534Z,980.42
2023-10-18T04:29:15.483Z,980.41
2023-10-18T04:30:15.470Z,980.43
2023-10-18T04:31:15.575Z,980.44
2023-10-18T04:32:15.445Z,980.44
2023-10-18T04:33:15.532Z,980.45
2023-10-18T04:34:15.593Z,980.45
2023-10-18T04:35:15.481Z,980.44
2023-10-18T04:36:15.485Z,980.44
2023-10-18T04:37:15.493Z,980.44
2023-10-18T04:38:15.464Z,980.44
2023-10-18T04:39:15.467Z,980.43
2023-10-18T04:40:15.540Z,980.42
2023-10-18T04:41:15.487Z,980.41
2023-10-18T04:42:15.492Z,980.4
2023-10-18T04:43:15.442Z,980.34
2023-10-18T04:44:15.461Z,980.33
2023-10-18T04:45:15.482Z,980.32
2023-10-18T04:46:15.552Z,980.29
2023-10-18T04:47:15.644Z,980.25
2023-10-18T04:48:15.455Z,980.25
2023-10-18T04:49:15.511Z,980.22
2023-10-18T04:50:15.463Z,980.22
2023-10-18T04:51:15.441Z,980.2
2023-10-18T04:52:15.474Z,980.22
2023-10-18T04:53:15.443Z,980.24
2023-10-18T04:54:15.437Z,980.27
2023-10-18T04:55:15.556Z,980.28
2023-10-18T04:56:15.459Z,980.31
2023-10-18T04:57:15.435Z,980.31
2023-10-18T04:58:15.524Z,980.31
2023-10-18T04:59:15.463Z,980.3
2023-10-18T05:00:15.492Z,980.33
2023-10-18T05:01:15.553Z,980.32
2023-10-18T05:02:15.500Z,980.32
2023-10-18T05:03:15.560Z,980.32
2023-10-18T05:04:15.562Z,980.33
2023-10-18T05:05:15.472Z,980.31
2023-10-18T05:06:15.471Z,980.32
2023-10-18T05:07:15.625Z,980.32
2023-10-18T05:08:15.478Z,980.31
2023-10-18T05:09:15.483Z,980.33
2023-10-18T05:10:15.693Z,980.34
2023-10-18T05:11:15.481Z,980.32
2023-10-18T05:12:15.485Z,980.34
2023-10-18T05:13:15.561Z,980.34
2023-10-18T05:14:15.456Z,980.33
2023-10-18T05:15:15.445Z,980.34
2023-10-18T05:16:15.551Z,980.36
2023-10-18T05:17:15.569Z,980.33
2023-10-18T05:18:15.486Z,980.38
2023-10-18T05:19:15.492Z,980.38
2023-10-18T05:20:15.466Z,980.4
2023-10-18T05:21:15.482Z,980.41
2023-10-18T05:22:15.571Z,980.43
2023-10-18T05:23:15.462Z,980.42
2023-10-18T05:24:15.472Z,980.42
2023-10-18T05:25:15.659Z,980.41
2023-10-18T05:26:15.444Z,980.4
2023-10-18T05:27:15.482Z,980.42
2023-10-18T05:28:15.467Z,980.42
2023-10-18T05:29:15.470Z,980.44
2023-10-18T05:30:15.483Z,980.46
2023-10-18T05:31:15.489Z,980.52
2023-10-18T05:32:15.507Z,980.5
2023-10-18T05:33:15.490Z,980.51
2023-10-18T05:34:15.543Z,980.52
2023-10-18T05:35:15.495Z,980.5
2023-10-18T05:36:15.484Z,980.49
2023-10-18T05:37:15.573Z,980.49
2023-10-18T05:38:15.491Z,980.46
2023-10-18T05:39:15.494Z,980.45
2023-10-18T05:40:15.487Z,980.46
2023-10-18T05:41:15.466Z,980.47
2023-10-18T05:42:15.448Z,980.46
2023-10-18T05:43:15.483Z,980.46
2023-10-18T05:44:15.491Z,980.47
2023-10-18T05:45:15.490Z,980.45
2023-10-18T05:46:15.549Z,980.45
2023-10-18T05:47:15.473Z,980.45
2023-10-18T05:48:15.480Z,980.37
2023-10-18T05:49:15.583Z,980.44
2023-10-18T05:50:15.467Z,980.4
2023-10-18T05:51:20.439Z,980.4
2023-10-18T05:52:15.541Z,980.43
2023-10-18T05:53:15.450Z,980.42
2023-10-18T05:54:15.469Z,980.44
2023-10-18T05:55:15.510Z,980.44
2023-10-18T05:56:15.484Z,980.46
2023-10-18T05:57:15.468Z,980.45
2023-10-18T05:58:15.508Z,980.44
2023-10-18T05:59:15.482Z,980.42
2023-10-18T06:00:15.495Z,980.44
2023-10-18T06:01:15.564Z,980.44
2023-10-18T06:02:15.480Z,980.44
2023-10-18T06:03:15.488Z,980.46
2023-10-18T06:04:15.545Z,980.44
2023-10-18T06:05:15.494Z,980.4
2023-10-18T06:06:15.493Z,980.42
2023-10-18T06:07:15.492Z,980.43
2023-10-18T06:08:15.461Z,980.42
2023-10-18T06:09:15.482Z,980.44
2023-10-18T06:10:15.457Z,980.43
2023-10-18T06:11:15.476Z,980.43
2023-10-18T06:12:15.472Z,980.42
2023-10-18T06:13:15.515Z,980.46
2023-10-18T06:14:15.482Z,980.45
2023-10-18T06:15:17.806Z,980.47
2023-10-18T06:16:15.642Z,980.45
2023-10-18T06:17:15.449Z,980.47
2023-10-18T06:18:15.449Z,980.45
2023-10-18T06:19:15.481Z,980.48
2023-10-18T06:20:15.554Z,980.48
2023-10-18T06:21:15.468Z,980.52
2023-10-18T06:22:15.510Z,980.53
2023-10-18T06:23:15.466Z,980.51
2023-10-18T06:24:15.491Z,980.5
2023-10-18T06:25:15.521Z,980.52
2023-10-18T06:26:15.463Z,980.53
2023-10-18T06:27:15.486Z,980.53
2023-10-18T06:28:15.513Z,980.52
2023-10-18T06:29:15.464Z,980.53
2023-10-18T06:30:15.499Z,980.52
2023-10-18T06:31:15.597Z,980.52
2023-10-18T06:32:15.515Z,980.52
2023-10-18T06:33:15.469Z,980.53
2023-10-18T06:34:15.510Z,980.52
2023-10-18T06:35:15.502Z,980.51
2023-10-18T06:36:15.451Z,980.52
2023-10-18T06:37:15.499Z,980.5
2023-10-18T06:38:15.471Z,980.52
2023-10-18T06:39:15.466Z,980.51
2023-10-18T06:40:15.518Z,980.53
2023-10-18T06:41:15.453Z,980.51
2023-10-18T06:42:15.459Z,980.55
2023-10-18T06:43:15.541Z,980.56
2023-10-18T06:44:15.456Z,980.56
2023-10-18T06:45:15.502Z,980.56
2023-10-18T06:46:15.569Z,980.54
2023-10-18T06:47:15.478Z,980.55
2023-10-18T06:48:15.484Z,980.55
2023-10-18T06:49:15.559Z,980.6
2023-10-18T06:50:18.322Z,980.57
2023-10-18T06:51:15.525Z,980.57
2023-10-18T06:52:17.805Z,980.56
2023-10-18T06:53:15.529Z,980.58
2023-10-18T06:54:15.493Z,980.58
2023-10-18T06:55:15.532Z,980.57
2023-10-18T06:56:15.471Z,980.59
2023-10-18T06:57:15.486Z,980.57
2023-10-18T06:58:15.531Z,980.56
2023-10-18T06:59:15.497Z,980.58
2023-10-18T07:00:15.462Z,980.56
2023-10-18T07:01:15.705Z,980.59
2023-10-18T07:02:15.512Z,980.57
2023-10-18T07:03:15.551Z,980.6
2023-10-18T07:04:15.525Z,980.6
2023-10-18T07:05:15.465Z,980.61
2023-10-18T07:06:15.483Z,980.61
2023-10-18T07:07:15.463Z,980.64
2023-10-18T07:08:15.496Z,980.64
2023-10-18T07:09:15.459Z,980.64
2023-10-18T07:10:15.502Z,980.64
2023-10-18T07:11:22.271Z,980.62
2023-10-18T07:12:15.468Z,980.59
2023-10-18T07:13:15.522Z,980.63
2023-10-18T07:14:15.469Z,980.6
2023-10-18T07:15:15.468Z,980.6
2023-10-18T07:16:15.697Z,980.62
2023-10-18T07:17:15.478Z,980.61
2023-10-18T07:18:15.469Z,980.59
2023-10-18T07:19:15.518Z,980.63
2023-10-18T07:20:15.503Z,980.61
2023-10-18T07:21:15.483Z,980.62
2023-10-18T07:22:15.524Z,980.65
2023-10-18T07:23:15.487Z,980.62
2023-10-18T07:24:15.477Z,980.65
2023-10-18T07:25:15.496Z,980.63
2023-10-18T07:26:15.468Z,980.65
2023-10-18T07:27:15.466Z,980.67
2023-10-18T07:28:15.501Z,980.64
2023-10-18T07:29:15.450Z,980.64
2023-10-18T07:30:15.715Z,980.64
2023-10-18T07:31:15.546Z,980.63
2023-10-18T07:32:15.535Z,980.62
2023-10-18T07:33:15.486Z,980.64
2023-10-18T07:34:15.508Z,980.64
2023-10-18T07:35:15.485Z,980.61
2023-10-18T07:36:15.468Z,980.61
2023-10-18T07:37:15.518Z,980.59
2023-10-18T07:38:17.905Z,980.58
2023-10-18T07:39:15.471Z,980.56
2023-10-18T07:40:15.510Z,980.57
2023-10-18T07:41:15.483Z,980.56
2023-10-18T07:42:15.497Z,980.52
2023-10-18T07:43:15.509Z,980.52
2023-10-18T07:44:15.481Z,980.51
2023-10-18T07:45:15.492Z,980.52
2023-10-18T07:46:15.499Z,980.53
2023-10-18T07:47:15.490Z,980.52
2023-10-18T07:48:15.494Z,980.54
2023-10-18T07:49:16.041Z,980.55
2023-10-18T07:50:15.497Z,980.59
2023-10-18T07:51:15.483Z,980.55
2023-10-18T07:52:15.503Z,980.54
2023-10-18T07:53:15.496Z,980.55
2023-10-18T07:54:15.482Z,980.52
2023-10-18T07:55:15.541Z,980.51
2023-10-18T07:56:15.464Z,980.55
2023-10-18T07:57:15.490Z,980.53
2023-10-18T07:58:15.475Z,980.51
2023-10-18T07:59:15.474Z,980.5
2023-10-18T08:00:15.490Z,980.53
2023-10-18T08:01:15.525Z,980.5
2023-10-18T08:02:15.466Z,980.48
2023-10-18T08:03:15.540Z,980.53
2023-10-18T08:04:15.676Z,980.52
2023-10-18T08:05:15.719Z,980.5
2023-10-18T08:06:15.548Z,980.46
2023-10-18T08:07:15.513Z,980.51
2023-10-18T08:08:15.464Z,980.46
2023-10-18T08:09:15.448Z,980.46
2023-10-18T08:10:15.517Z,980.45
2023-10-18T08:11:15.476Z,980.47
2023-10-18T08:12:15.497Z,980.44
2023-10-18T08:13:15.554Z,980.48
2023-10-18T08:14:15.484Z,980.48
2023-10-18T08:15:15.602Z,980.49
2023-10-18T08:16:15.507Z,980.44
2023-10-18T08:17:15.501Z,980.42
2023-10-18T08:18:15.450Z,980.48
2023-10-18T08:19:15.490Z,980.48
2023-10-18T08:20:15.491Z,980.53
2023-10-18T08:21:15.463Z,980.43
2023-10-18T08:22:15.465Z,980.45
2023-10-18T08:23:15.485Z,980.47
2023-10-18T08:24:15.478Z,980.45
2023-10-18T08:25:15.481Z,980.42
2023-10-18T08:26:15.497Z,980.44
2023-10-18T08:27:15.487Z,980.44
2023-10-18T08:28:15.562Z,980.41
2023-10-18T08:29:15.471Z,980.43
2023-10-18T08:30:15.470Z,980.4
2023-10-18T08:31:15.538Z,980.42
2023-10-18T08:32:15.540Z,980.44
2023-10-18T08:33:15.484Z,980.41
2023-10-18T08:34:15.597Z,980.41
2023-10-18T08:35:15.493Z,980.43
2023-10-18T08:36:15.497Z,980.36
2023-10-18T08:37:15.526Z,980.4
2023-10-18T08:38:15.496Z,980.34
2023-10-18T08:39:15.486Z,980.42
2023-10-18T08:40:15.548Z,980.39
2023-10-18T08:41:15.479Z,980.4
2023-10-18T08:42:15.500Z,980.42
2023-10-18T08:43:15.485Z,980.39
2023-10-18T08:44:15.467Z,980.42
2023-10-18T08:45:15.455Z,980.45
2023-10-18T08:46:15.524Z,980.41
2023-10-18T08:47:18.063Z,980.39
2023-10-18T08:48:15.512Z,980.41
2023-10-18T08:49:15.482Z,980.38
2023-10-18T08:50:15.471Z,980.38
2023-10-18T08:51:15.460Z,980.4
2023-10-18T08:52:15.489Z,980.41
2023-10-18T08:53:15.481Z,980.41
2023-10-18T08:54:15.465Z,980.38
2023-10-18T08:55:15.531Z,980.45
2023-10-18T08:56:15.457Z,980.45
2023-10-18T08:57:15.452Z,980.43
2023-10-18T08:58:15.522Z,980.4
2023-10-18T08:59:15.469Z,980.39
2023-10-18T09:00:15.468Z,980.42
2023-10-18T09:01:15.537Z,980.36
2023-10-18T09:02:15.546Z,980.34
2023-10-18T09:03:15.550Z,980.36
2023-10-18T09:04:15.535Z,980.31
2023-10-18T09:05:15.442Z,980.34
2023-10-18T09:06:15.486Z,980.27
2023-10-18T09:07:15.508Z,980.29
2023-10-18T09:08:15.466Z,980.26
2023-10-18T09:09:15.492Z,980.25
2023-10-18T09:10:15.576Z,980.28
2023-10-18T09:11:15.475Z,980.24
2023-10-18T09:12:15.462Z,980.23
2023-10-18T09:13:18.750Z,980.22
2023-10-18T09:14:15.550Z,980.18
2023-10-18T09:15:15.482Z,980.2
2023-10-18T09:16:15.535Z,980.19
2023-10-18T09:17:15.563Z,980.18
2023-10-18T09:18:15.528Z,980.19
2023-10-18T09:19:15.567Z,980.2
2023-10-18T09:20:15.439Z,980.19
2023-10-18T09:21:15.489Z,980.14
2023-10-18T09:22:15.562Z,980.21
2023-10-18T09:23:15.490Z,980.21
2023-10-18T09:24:15.487Z,980.19
2023-10-18T09:25:15.508Z,980.15
2023-10-18T09:26:15.466Z,980.18
2023-10-18T09:27:15.488Z,980.21
2023-10-18T09:28:15.569Z,980.22
2023-10-18T09:29:15.473Z,980.16
2023-10-18T09:30:15.493Z,980.18
2023-10-18T09:31:15.899Z,980.15
2023-10-18T09:32:15.526Z,980.15
2023-10-18T09:33:15.487Z,980.17
2023-10-18T09:34:15.543Z,980.14
2023-10-18T09:35:15.483Z,980.13
2023-10-18T09:36:15.468Z,980.17
2023-10-18T09:37:15.582Z,980.15
2023-10-18T09:38:15.504Z,980.15
2023-10-18T09:39:15.479Z,980.17
2023-10-18T09:40:15.516Z,980.16
2023-10-18T09:41:15.446Z,980.16
2023-10-18T09:42:15.464Z,980.18
2023-10-18T09:43:15.486Z,980.12
2023-10-18T09:44:15.457Z,980.16
2023-10-18T09:45:15.465Z,980.11
2023-10-18T09:46:15.533Z,980.17
2023-10-18T09:47:15.549Z,980.19
2023-10-18T09:48:15.509Z,980.21
2023-10-18T09:49:15.506Z,980.13
2023-10-18T09:50:15.489Z,980.15
2023-10-18T09:51:15.482Z,980.1
2023-10-18T09:52:15.507Z,980.13
2023-10-18T09:53:15.457Z,980.14
2023-10-18T09:54:15.506Z,980.14
2023-10-18T09:55:15.459Z,980.12
2023-10-18T09:56:15.493Z,980.14
2023-10-18T09:57:15.462Z,980.11
2023-10-18T09:58:15.513Z,980.13
2023-10-18T09:59:15.480Z,980.11
2023-10-18T10:00:15.484Z,980.12
2023-10-18T10:01:15.599Z,980.1
2023-10-18T10:02:15.635Z,980.15
2023-10-18T10:03:15.674Z,980.14
2023-10-18T10:04:16.289Z,980.13
2023-10-18T10:05:15.472Z,980.07
2023-10-18T10:06:15.448Z,980.12
2023-10-18T10:07:15.536Z,980.12
2023-10-18T10:08:15.487Z,980.09
2023-10-18T10:09:15.456Z,980.09
2023-10-18T10:10:15.505Z,980.08
2023-10-18T10:11:15.484Z,980.03
2023-10-18T10:12:15.484Z,980
2023-10-18T10:13:15.495Z,979.98
2023-10-18T10:14:15.469Z,979.97
2023-10-18T10:15:15.488Z,979.97
2023-10-18T10:16:15.516Z,980
2023-10-18T10:17:15.501Z,979.99
2023-10-18T10:18:15.536Z,979.94
2023-10-18T10:19:15.515Z,979.93
2023-10-18T10:20:15.476Z,979.91
2023-10-18T10:21:15.486Z,979.88
2023-10-18T10:22:15.534Z,979.93
2023-10-18T10:23:15.470Z,979.86
2023-10-18T10:24:15.447Z,979.89
2023-10-18T10:25:33.588Z,979.87
2023-10-18T10:26:32.472Z,979.82
2023-10-18T10:27:15.470Z,979.88
2023-10-18T10:28:15.575Z,979.83
2023-10-18T10:29:15.463Z,979.8
2023-10-18T10:30:15.466Z,979.77
2023-10-18T10:31:15.521Z,979.78
2023-10-18T10:32:15.484Z,979.78
2023-10-18T10:33:15.508Z,979.76
2023-10-18T10:34:15.467Z,979.83
2023-10-18T10:35:15.475Z,979.72
2023-10-18T10:36:15.483Z,979.7
2023-10-18T10:37:15.491Z,979.71
2023-10-18T10:38:16.378Z,979.71
2023-10-18T10:39:15.489Z,979.71
2023-10-18T10:40:15.484Z,979.72
2023-10-18T10:41:15.481Z,979.77
2023-10-18T10:42:15.463Z,979.68
2023-10-18T10:43:15.535Z,979.67
2023-10-18T10:44:15.491Z,979.68
2023-10-18T10:45:15.480Z,979.68
2023-10-18T10:46:15.553Z,979.66
2023-10-18T10:47:15.515Z,979.69
2023-10-18T10:48:15.486Z,979.67
2023-10-18T10:49:15.546Z,979.67
2023-10-18T10:50:15.508Z,979.6
2023-10-18T10:51:15.473Z,979.65
2023-10-18T10:52:15.501Z,979.62
2023-10-18T10:53:15.485Z,979.63
2023-10-18T10:54:15.471Z,979.61
2023-10-18T10:55:15.555Z,979.58
2023-10-18T10:56:15.459Z,979.53
2023-10-18T10:57:15.836Z,979.49
2023-10-18T10:58:15.558Z,979.47
2023-10-18T10:59:15.489Z,979.48
2023-10-18T11:00:15.490Z,979.44
2023-10-18T11:01:15.565Z,979.47
2023-10-18T11:02:15.529Z,979.48
2023-10-18T11:03:15.521Z,979.44
2023-10-18T11:04:15.503Z,979.4
2023-10-18T11:05:15.463Z,979.38
2023-10-18T11:06:15.497Z,979.36
2023-10-18T11:07:15.555Z,979.37
2023-10-18T11:08:15.433Z,979.36
2023-10-18T11:09:15.458Z,979.4
2023-10-18T11:10:15.523Z,979.39
2023-10-18T11:11:15.463Z,979.43
2023-10-18T11:12:15.463Z,979.4
2023-10-18T11:13:15.493Z,979.36
2023-10-18T11:14:15.481Z,979.37
2023-10-18T11:15:15.445Z,979.35
2023-10-18T11:16:15.541Z,979.34
2023-10-18T11:17:15.817Z,979.3
2023-10-18T11:18:15.471Z,979.33
2023-10-18T11:19:15.477Z,979.32
2023-10-18T11:20:15.491Z,979.32
2023-10-18T11:21:15.480Z,979.29
2023-10-18T11:22:15.478Z,979.31
2023-10-18T11:23:15.472Z,979.27
2023-10-18T11:24:15.467Z,979.28
2023-10-18T11:25:15.492Z,979.25
2023-10-18T11:26:15.486Z,979.24
2023-10-18T11:27:15.446Z,979.25
2023-10-18T11:28:15.499Z,979.23
2023-10-18T11:29:15.467Z,979.22
2023-10-18T11:30:15.506Z,979.21
2023-10-18T11:31:15.628Z,979.22
2023-10-18T11:32:15.651Z,979.16
2023-10-18T11:33:15.512Z,979.14
2023-10-18T11:34:15.651Z,979.11
2023-10-18T11:35:18.050Z,979.12
2023-10-18T11:36:15.498Z,979.12
2023-10-18T11:37:15.557Z,979.08
2023-10-18T11:38:15.504Z,979.09
2023-10-18T11:39:15.454Z,979.1
2023-10-18T11:40:15.503Z,979.03
2023-10-18T11:41:15.500Z,979.02
2023-10-18T11:42:15.493Z,978.99
2023-10-18T11:43:15.514Z,978.96
2023-10-18T11:44:15.453Z,978.96
2023-10-18T11:45:15.472Z,978.87
2023-10-18T11:46:15.532Z,978.94
2023-10-18T11:47:15.440Z,978.92
2023-10-18T11:48:15.724Z,978.88
2023-10-18T11:49:15.500Z,978.9
2023-10-18T11:50:15.494Z,978.89
2023-10-18T11:51:15.442Z,978.87
2023-10-18T11:52:15.568Z,978.89
2023-10-18T11:53:15.516Z,978.88
2023-10-18T11:54:15.459Z,978.79
2023-10-18T11:55:15.519Z,978.82
2023-10-18T11:56:15.484Z,978.8
2023-10-18T11:57:15.469Z,978.8
2023-10-18T11:58:15.482Z,978.79
2023-10-18T11:59:15.472Z,978.79
2023-10-18T12:00:15.485Z,978.81
2023-10-18T12:01:15.492Z,978.78
2023-10-18T12:02:15.542Z,978.78
2023-10-18T12:03:15.658Z,978.75
2023-10-18T12:04:15.603Z,978.72
2023-10-18T12:05:15.572Z,978.77
2023-10-18T12:06:15.497Z,978.69
2023-10-18T12:07:15.584Z,978.68
2023-10-18T12:08:15.461Z,978.73
2023-10-18T12:09:15.472Z,978.78
2023-10-18T12:10:15.505Z,978.72
2023-10-18T12:11:15.431Z,978.7
2023-10-18T12:12:15.474Z,978.69
2023-10-18T12:13:15.489Z,978.66
2023-10-18T12:14:15.464Z,978.63
2023-10-18T12:15:15.428Z,978.62
2023-10-18T12:16:15.536Z,978.64
2023-10-18T12:17:15.485Z,978.59
2023-10-18T12:18:15.515Z,978.56
2023-10-18T12:19:15.526Z,978.52
2023-10-18T12:20:15.449Z,978.57
2023-10-18T12:21:15.462Z,978.53
2023-10-18T12:22:15.484Z,978.46
2023-10-18T12:23:17.235Z,978.5
2023-10-18T12:24:15.490Z,978.42
2023-10-18T12:25:15.523Z,978.39
2023-10-18T12:26:15.445Z,978.4
2023-10-18T12:27:15.491Z,978.37
2023-10-18T12:28:15.528Z,978.35
2023-10-18T12:29:15.467Z,978.36
2023-10-18T12:30:30.336Z,978.31
2023-10-18T12:31:15.483Z,978.32